sensor_id;sensor_type;location;lat;lon;timestamp;pressure;altitude;pressure_sealevel;temperature;humidity
76694;BME280;69667;52.136;5.424;2024-01-06T00:00:51;100501.34;;;4.79;100.00
76694;BME280;69667;52.136;5.424;2024-01-06T00:03:19;100494.44;;;4.75;100.00
76694;BME280;69667;52.136;5.424;2024-01-06T00:05:47;100489.34;;;4.70;100.00
76694;BME280;69667;52.136;5.424;2024-01-06T00:08:16;100491.94;;;4.72;100.00
76694;BME280;69667;52.136;5.424;2024-01-06T00:10:44;100495.44;;;4.72;100.00
76694;BME280;69667;52.136;5.424;2024-01-06T00:13:12;100503.75;;;4.68;100.00
76694;BME280;69667;52.136;5.424;2024-01-06T00:15:40;100508.22;;;4.67;100.00
76694;BME280;69667;52.136;5.424;2024-01-06T00:18:09;100513.91;;;4.61;100.00
76694;BME280;69667;52.136;5.424;2024-01-06T00:20:38;100519.34;;;4.60;100.00
76694;BME280;69667;52.136;5.424;2024-01-06T00:23:06;100526.75;;;4.55;100.00
76694;BME280;69667;52.136;5.424;2024-01-06T00:25:34;100534.78;;;4.55;100.00
76694;BME280;69667;52.136;5.424;2024-01-06T00:28:03;100538.72;;;4.48;100.00
76694;BME280;69667;52.136;5.424;2024-01-06T00:30:31;100535.44;;;4.43;100.00
76694;BME280;69667;52.136;5.424;2024-01-06T00:32:59;100539.00;;;4.43;100.00
76694;BME280;69667;52.136;5.424;2024-01-06T00:35:27;100541.94;;;4.39;100.00
76694;BME280;69667;52.136;5.424;2024-01-06T00:37:56;100536.81;;;4.34;100.00
76694;BME280;69667;52.136;5.424;2024-01-06T00:40:24;100537.78;;;4.33;100.00
76694;BME280;69667;52.136;5.424;2024-01-06T00:42:52;100543.22;;;4.32;100.00
76694;BME280;69667;52.136;5.424;2024-01-06T00:45:21;100537.00;;;4.31;100.00
76694;BME280;69667;52.136;5.424;2024-01-06T00:47:49;100541.53;;;4.29;100.00
76694;BME280;69667;52.136;5.424;2024-01-06T00:50:18;100544.06;;;4.32;100.00
76694;BME280;69667;52.136;5.424;2024-01-06T00:52:46;100542.34;;;4.31;100.00
76694;BME280;69667;52.136;5.424;2024-01-06T00:55:15;100544.84;;;4.34;100.00
76694;BME280;69667;52.136;5.424;2024-01-06T00:57:43;100547.41;;;4.36;100.00
76694;BME280;69667;52.136;5.424;2024-01-06T01:00:12;100545.69;;;4.35;100.00
76694;BME280;69667;52.136;5.424;2024-01-06T01:02:40;100557.34;;;4.34;100.00
76694;BME280;69667;52.136;5.424;2024-01-06T01:05:08;100556.47;;;4.33;100.00
76694;BME280;69667;52.136;5.424;2024-01-06T01:07:37;100561.72;;;4.35;100.00
76694;BME280;69667;52.136;5.424;2024-01-06T01:10:05;100568.97;;;4.33;100.00
76694;BME280;69667;52.136;5.424;2024-01-06T01:12:34;100568.88;;;4.34;100.00
76694;BME280;69667;52.136;5.424;2024-01-06T01:15:02;100564.66;;;4.30;100.00
76694;BME280;69667;52.136;5.424;2024-01-06T01:17:30;100578.84;;;4.31;100.00
76694;BME280;69667;52.136;5.424;2024-01-06T01:19:59;100585.41;;;4.25;100.00
76694;BME280;69667;52.136;5.424;2024-01-06T01:22:27;100584.97;;;4.17;100.00
76694;BME280;69667;52.136;5.424;2024-01-06T01:24:55;100599.34;;;4.15;100.00
76694;BME280;69667;52.136;5.424;2024-01-06T01:27:24;100594.16;;;4.12;100.00
76694;BME280;69667;52.136;5.424;2024-01-06T01:29:52;100597.91;;;4.08;100.00
76694;BME280;69667;52.136;5.424;2024-01-06T01:32:22;100608.78;;;4.05;100.00
76694;BME280;69667;52.136;5.424;2024-01-06T01:34:50;100608.06;;;4.01;100.00
76694;BME280;69667;52.136;5.424;2024-01-06T01:37:19;100608.16;;;4.00;100.00
76694;BME280;69667;52.136;5.424;2024-01-06T01:39:47;100613.50;;;4.00;100.00
76694;BME280;69667;52.136;5.424;2024-01-06T01:42:15;100624.09;;;4.01;100.00
76694;BME280;69667;52.136;5.424;2024-01-06T01:44:44;100624.00;;;4.03;100.00
76694;BME280;69667;52.136;5.424;2024-01-06T01:47:12;100624.88;;;4.03;100.00
76694;BME280;69667;52.136;5.424;2024-01-06T01:49:46;100630.13;;;4.05;100.00
76694;BME280;69667;52.136;5.424;2024-01-06T01:52:15;100637.28;;;4.04;100.00
76694;BME280;69667;52.136;5.424;2024-01-06T01:54:43;100633.75;;;4.04;100.00
76694;BME280;69667;52.136;5.424;2024-01-06T01:57:14;100641.78;;;4.04;100.00
76694;BME280;69667;52.136;5.424;2024-01-06T01:59:43;100640.97;;;4.02;100.00
76694;BME280;69667;52.136;5.424;2024-01-06T02:02:12;100648.19;;;4.00;100.00
76694;BME280;69667;52.136;5.424;2024-01-06T02:04:40;100648.19;;;4.00;100.00
76694;BME280;69667;52.136;5.424;2024-01-06T02:07:11;100645.44;;;4.01;100.00
76694;BME280;69667;52.136;5.424;2024-01-06T02:09:39;100656.84;;;4.05;100.00
76694;BME280;69667;52.136;5.424;2024-01-06T02:12:07;100652.44;;;4.04;100.00
76694;BME280;69667;52.136;5.424;2024-01-06T02:14:36;100657.88;;;4.02;100.00
76694;BME280;69667;52.136;5.424;2024-01-06T02:17:04;100656.84;;;4.05;100.00
76694;BME280;69667;52.136;5.424;2024-01-06T02:19:32;100656.91;;;4.03;100.00
76694;BME280;69667;52.136;5.424;2024-01-06T02:22:01;100664.84;;;4.05;100.00
76694;BME280;69667;52.136;5.424;2024-01-06T02:24:29;100668.56;;;4.02;100.00
76694;BME280;69667;52.136;5.424;2024-01-06T02:26:57;100661.72;;;3.97;100.00
76694;BME280;69667;52.136;5.424;2024-01-06T02:29:25;100666.97;;;3.98;100.00
76694;BME280;69667;52.136;5.424;2024-01-06T02:31:54;100670.63;;;3.96;100.00
76694;BME280;69667;52.136;5.424;2024-01-06T02:34:22;100669.56;;;4.00;100.00
76694;BME280;69667;52.136;5.424;2024-01-06T02:36:50;100670.50;;;3.99;100.00
76694;BME280;69667;52.136;5.424;2024-01-06T02:39:18;100684.69;;;3.99;100.00
76694;BME280;69667;52.136;5.424;2024-01-06T02:41:47;100684.63;;;4.01;100.00
76694;BME280;69667;52.136;5.424;2024-01-06T02:44:15;100682.03;;;3.99;100.00
76694;BME280;69667;52.136;5.424;2024-01-06T02:46:43;100695.38;;;3.99;100.00
76694;BME280;69667;52.136;5.424;2024-01-06T02:49:12;100691.78;;;4.00;100.00
76694;BME280;69667;52.136;5.424;2024-01-06T02:51:40;100696.41;;;3.97;100.00
76694;BME280;69667;52.136;5.424;2024-01-06T02:54:08;100695.53;;;3.96;100.00
76694;BME280;69667;52.136;5.424;2024-01-06T02:56:36;100696.25;;;4.00;100.00
76694;BME280;69667;52.136;5.424;2024-01-06T02:59:06;100703.63;;;3.95;100.00
76694;BME280;69667;52.136;5.424;2024-01-06T03:01:34;100699.00;;;3.98;100.00
76694;BME280;69667;52.136;5.424;2024-01-06T03:04:02;100698.13;;;3.98;100.00
76694;BME280;69667;52.136;5.424;2024-01-06T03:06:32;100698.94;;;4.00;100.00
76694;BME280;69667;52.136;5.424;2024-01-06T03:09:01;100698.94;;;4.00;100.00
76694;BME280;69667;52.136;5.424;2024-01-06T03:11:29;100705.97;;;4.01;100.00
76694;BME280;69667;52.136;5.424;2024-01-06T03:13:57;100710.78;;;3.94;100.00
76694;BME280;69667;52.136;5.424;2024-01-06T03:16:26;100703.88;;;3.90;100.00
76694;BME280;69667;52.136;5.424;2024-01-06T03:18:54;100711.16;;;3.86;100.00
76694;BME280;69667;52.136;5.424;2024-01-06T03:21:22;100717.59;;;3.82;100.00
76694;BME280;69667;52.136;5.424;2024-01-06T03:23:51;100737.06;;;3.84;100.00
76694;BME280;69667;52.136;5.424;2024-01-06T03:26:19;100736.28;;;3.82;100.00
76694;BME280;69667;52.136;5.424;2024-01-06T03:28:50;100733.75;;;3.79;100.00
76694;BME280;69667;52.136;5.424;2024-01-06T03:31:18;100745.16;;;3.83;100.00
76694;BME280;69667;52.136;5.424;2024-01-06T03:33:49;100738.19;;;3.80;100.00
76694;BME280;69667;52.136;5.424;2024-01-06T03:36:20;100745.31;;;3.80;100.00
76694;BME280;69667;52.136;5.424;2024-01-06T03:38:48;100759.47;;;3.82;100.00
76694;BME280;69667;52.136;5.424;2024-01-06T03:41:16;100760.19;;;3.85;100.00
76694;BME280;69667;52.136;5.424;2024-01-06T03:43:44;100766.50;;;3.83;100.00
76694;BME280;69667;52.136;5.424;2024-01-06T03:46:13;100772.66;;;3.85;100.00
76694;BME280;69667;52.136;5.424;2024-01-06T03:48:41;100781.53;;;3.85;100.00
76694;BME280;69667;52.136;5.424;2024-01-06T03:51:10;100773.44;;;3.87;100.00
76694;BME280;69667;52.136;5.424;2024-01-06T03:53:38;100780.72;;;3.83;100.00
76694;BME280;69667;52.136;5.424;2024-01-06T03:56:09;100782.59;;;3.81;100.00
76694;BME280;69667;52.136;5.424;2024-01-06T03:58:38;100784.41;;;3.81;100.00
76694;BME280;69667;52.136;5.424;2024-01-06T04:01:06;100789.97;;;3.76;100.00
76694;BME280;69667;52.136;5.424;2024-01-06T04:03:34;100790.28;;;3.70;100.00
76694;BME280;69667;52.136;5.424;2024-01-06T04:06:03;100799.28;;;3.68;100.00
76694;BME280;69667;52.136;5.424;2024-01-06T04:08:31;100794.03;;;3.66;100.00
76694;BME280;69667;52.136;5.424;2024-01-06T04:10:59;100806.28;;;3.70;100.00
76694;BME280;69667;52.136;5.424;2024-01-06T04:13:28;100810.84;;;3.68;100.00
76694;BME280;69667;52.136;5.424;2024-01-06T04:15:56;100800.09;;;3.70;100.00
76694;BME280;69667;52.136;5.424;2024-01-06T04:18:24;100805.50;;;3.68;100.00
76694;BME280;69667;52.136;5.424;2024-01-06T04:20:53;100794.91;;;3.67;100.00
76694;BME280;69667;52.136;5.424;2024-01-06T04:23:21;100805.75;;;3.62;100.00
76694;BME280;69667;52.136;5.424;2024-01-06T04:25:52;100805.66;;;3.65;100.00
76694;BME280;69667;52.136;5.424;2024-01-06T04:28:20;100806.72;;;3.61;100.00
76694;BME280;69667;52.136;5.424;2024-01-06T04:30:49;100803.25;;;3.59;100.00
76694;BME280;69667;52.136;5.424;2024-01-06T04:33:17;100805.13;;;3.57;100.00
76694;BME280;69667;52.136;5.424;2024-01-06T04:35:46;100810.53;;;3.56;100.00
76694;BME280;69667;52.136;5.424;2024-01-06T04:38:14;100815.03;;;3.55;100.00
76694;BME280;69667;52.136;5.424;2024-01-06T04:40:42;100815.03;;;3.55;100.00
76694;BME280;69667;52.136;5.424;2024-01-06T04:43:10;100821.28;;;3.54;100.00
76694;BME280;69667;52.136;5.424;2024-01-06T04:45:39;100825.09;;;3.49;100.00
76694;BME280;69667;52.136;5.424;2024-01-06T04:48:07;100834.25;;;3.43;100.00
76694;BME280;69667;52.136;5.424;2024-01-06T04:50:35;100827.31;;;3.39;100.00
76694;BME280;69667;52.136;5.424;2024-01-06T04:53:04;100822.06;;;3.38;100.00
76694;BME280;69667;52.136;5.424;2024-01-06T04:55:32;100829.13;;;3.39;100.00
76694;BME280;69667;52.136;5.424;2024-01-06T04:58:00;100836.28;;;3.38;100.00
76694;BME280;69667;52.136;5.424;2024-01-06T05:00:29;100831.94;;;3.36;100.00
76694;BME280;69667;52.136;5.424;2024-01-06T05:02:57;100838.38;;;3.32;100.00
76694;BME280;69667;52.136;5.424;2024-01-06T05:05:26;100837.63;;;3.28;100.00
76694;BME280;69667;52.136;5.424;2024-01-06T05:07:54;100839.44;;;3.28;100.00
76694;BME280;69667;52.136;5.424;2024-01-06T05:10:22;100847.44;;;3.28;100.00
76694;BME280;69667;52.136;5.424;2024-01-06T05:12:50;100850.16;;;3.26;100.00
76694;BME280;69667;52.136;5.424;2024-01-06T05:15:19;100848.44;;;3.25;100.00
76694;BME280;69667;52.136;5.424;2024-01-06T05:17:47;100855.50;;;3.26;100.00
76694;BME280;69667;52.136;5.424;2024-01-06T05:20:15;100858.03;;;3.29;100.00
76694;BME280;69667;52.136;5.424;2024-01-06T05:22:44;100854.28;;;3.33;100.00
76694;BME280;69667;52.136;5.424;2024-01-06T05:25:12;100861.56;;;3.30;100.00
76694;BME280;69667;52.136;5.424;2024-01-06T05:27:40;100869.91;;;3.22;100.00
76694;BME280;69667;52.136;5.424;2024-01-06T05:30:09;100868.19;;;3.21;100.00
76694;BME280;69667;52.136;5.424;2024-01-06T05:32:37;100880.56;;;3.22;100.00
76694;BME280;69667;52.136;5.424;2024-01-06T05:35:06;100881.59;;;3.20;100.00
76694;BME280;69667;52.136;5.424;2024-01-06T05:37:35;100878.13;;;3.18;100.00
76694;BME280;69667;52.136;5.424;2024-01-06T05:40:03;100881.59;;;3.20;100.00
76694;BME280;69667;52.136;5.424;2024-01-06T05:42:33;100885.13;;;3.20;100.00
76694;BME280;69667;52.136;5.424;2024-01-06T05:45:02;100876.31;;;3.18;100.00
76694;BME280;69667;52.136;5.424;2024-01-06T05:47:30;100887.91;;;3.17;100.00
76694;BME280;69667;52.136;5.424;2024-01-06T05:49:59;100889.59;;;3.20;100.00
76694;BME280;69667;52.136;5.424;2024-01-06T05:52:27;100894.84;;;3.21;100.00
76694;BME280;69667;52.136;5.424;2024-01-06T05:54:55;100895.78;;;3.20;100.00
76694;BME280;69667;52.136;5.424;2024-01-06T05:57:25;100899.66;;;3.13;100.00
76694;BME280;69667;52.136;5.424;2024-01-06T05:59:53;100900.56;;;3.12;100.00
76694;BME280;69667;52.136;5.424;2024-01-06T06:02:22;100897.00;;;3.13;100.00
76694;BME280;69667;52.136;5.424;2024-01-06T06:04:50;100912.31;;;3.08;100.00
76694;BME280;69667;52.136;5.424;2024-01-06T06:07:19;100903.72;;;3.02;100.00
76694;BME280;69667;52.136;5.424;2024-01-06T06:09:47;100921.50;;;3.01;100.00
76694;BME280;69667;52.136;5.424;2024-01-06T06:12:16;100925.19;;;2.99;100.00
76694;BME280;69667;52.136;5.424;2024-01-06T06:14:44;100935.91;;;2.97;100.00
76694;BME280;69667;52.136;5.424;2024-01-06T06:17:12;100930.56;;;2.97;100.00
76694;BME280;69667;52.136;5.424;2024-01-06T06:19:41;100938.69;;;2.94;100.00
76694;BME280;69667;52.136;5.424;2024-01-06T06:22:09;100944.91;;;2.95;100.00
76694;BME280;69667;52.136;5.424;2024-01-06T06:24:37;100936.97;;;2.93;100.00
76694;BME280;69667;52.136;5.424;2024-01-06T06:27:05;100944.97;;;2.93;100.00
76694;BME280;69667;52.136;5.424;2024-01-06T06:29:34;100943.34;;;2.89;100.00
76694;BME280;69667;52.136;5.424;2024-01-06T06:32:02;100951.41;;;2.88;100.00
76694;BME280;69667;52.136;5.424;2024-01-06T06:34:30;100956.69;;;2.89;100.00
76694;BME280;69667;52.136;5.424;2024-01-06T06:36:58;100963.03;;;2.87;100.00
76694;BME280;69667;52.136;5.424;2024-01-06T06:39:27;100962.97;;;2.88;100.00
76694;BME280;69667;52.136;5.424;2024-01-06T06:41:55;100964.75;;;2.88;100.00
76694;BME280;69667;52.136;5.424;2024-01-06T06:44:24;100979.69;;;2.92;100.00
76694;BME280;69667;52.136;5.424;2024-01-06T06:46:52;100978.75;;;2.93;100.00
76694;BME280;69667;52.136;5.424;2024-01-06T06:49:20;100985.09;;;2.90;100.00
76694;BME280;69667;52.136;5.424;2024-01-06T06:51:48;100982.44;;;2.90;100.00
76694;BME280;69667;52.136;5.424;2024-01-06T06:54:17;100986.75;;;2.93;100.00
76694;BME280;69667;52.136;5.424;2024-01-06T06:56:45;100992.81;;;2.96;100.00
76694;BME280;69667;52.136;5.424;2024-01-06T06:59:13;100998.09;;;2.98;100.00
76694;BME280;69667;52.136;5.424;2024-01-06T07:01:42;101003.47;;;2.96;100.00
76694;BME280;69667;52.136;5.424;2024-01-06T07:04:10;101008.75;;;2.98;100.00
76694;BME280;69667;52.136;5.424;2024-01-06T07:06:39;101015.88;;;2.97;100.00
76694;BME280;69667;52.136;5.424;2024-01-06T07:09:07;101012.34;;;2.97;100.00
76694;BME280;69667;52.136;5.424;2024-01-06T07:11:35;101024.81;;;2.96;100.00
76694;BME280;69667;52.136;5.424;2024-01-06T07:14:03;101027.69;;;2.92;100.00
76694;BME280;69667;52.136;5.424;2024-01-06T07:16:32;101028.50;;;2.92;100.00
76694;BME280;69667;52.136;5.424;2024-01-06T07:19:00;101030.50;;;2.87;100.00
76694;BME280;69667;52.136;5.424;2024-01-06T07:21:28;101038.63;;;2.84;100.00
76694;BME280;69667;52.136;5.424;2024-01-06T07:23:57;101037.78;;;2.84;100.00
76694;BME280;69667;52.136;5.424;2024-01-06T07:26:25;101051.13;;;2.82;100.00
76694;BME280;69667;52.136;5.424;2024-01-06T07:28:53;101045.03;;;2.80;100.00
76694;BME280;69667;52.136;5.424;2024-01-06T07:31:22;101047.69;;;2.80;100.00
76694;BME280;69667;52.136;5.424;2024-01-06T07:33:50;101042.38;;;2.80;100.00
76694;BME280;69667;52.136;5.424;2024-01-06T07:36:18;101045.81;;;2.82;100.00
76694;BME280;69667;52.136;5.424;2024-01-06T07:38:48;101056.47;;;2.82;100.00
76694;BME280;69667;52.136;5.424;2024-01-06T07:41:16;101057.34;;;2.83;100.00
76694;BME280;69667;52.136;5.424;2024-01-06T07:43:45;101058.28;;;2.82;100.00
76694;BME280;69667;52.136;5.424;2024-01-06T07:46:13;101063.63;;;2.82;100.00
76694;BME280;69667;52.136;5.424;2024-01-06T07:48:44;101070.69;;;2.83;100.00
76694;BME280;69667;52.136;5.424;2024-01-06T07:51:13;101077.75;;;2.84;100.00
76694;BME280;69667;52.136;5.424;2024-01-06T07:53:42;101089.28;;;2.84;100.00
76694;BME280;69667;52.136;5.424;2024-01-06T07:56:10;101094.66;;;2.83;100.00
76694;BME280;69667;52.136;5.424;2024-01-06T07:58:38;101093.75;;;2.84;100.00
76694;BME280;69667;52.136;5.424;2024-01-06T08:01:06;101091.09;;;2.84;100.00
76694;BME280;69667;52.136;5.424;2024-01-06T08:03:35;101100.81;;;2.85;100.00
76694;BME280;69667;52.136;5.424;2024-01-06T08:06:03;101092.06;;;2.81;100.00
76694;BME280;69667;52.136;5.424;2024-01-06T08:08:32;101113.31;;;2.83;100.00
76694;BME280;69667;52.136;5.424;2024-01-06T08:11:00;101109.75;;;2.84;100.00
76694;BME280;69667;52.136;5.424;2024-01-06T08:13:28;101112.34;;;2.85;100.00
76694;BME280;69667;52.136;5.424;2024-01-06T08:15:57;101117.69;;;2.85;100.00
76694;BME280;69667;52.136;5.424;2024-01-06T08:18:25;101129.19;;;2.86;100.00
76694;BME280;69667;52.136;5.424;2024-01-06T08:20:54;101125.63;;;2.87;100.00
76694;BME280;69667;52.136;5.424;2024-01-06T08:23:23;101130.88;;;2.88;100.00
76694;BME280;69667;52.136;5.424;2024-01-06T08:25:51;101126.47;;;2.87;100.00
76694;BME280;69667;52.136;5.424;2024-01-06T08:28:19;101130.00;;;2.88;100.00
76694;BME280;69667;52.136;5.424;2024-01-06T08:30:50;101126.47;;;2.87;100.00
76694;BME280;69667;52.136;5.424;2024-01-06T08:33:19;101130.81;;;2.90;100.00
76694;BME280;69667;52.136;5.424;2024-01-06T08:35:47;101137.03;;;2.90;100.00
76694;BME280;69667;52.136;5.424;2024-01-06T08:38:16;101138.75;;;2.91;100.00
76694;BME280;69667;52.136;5.424;2024-01-06T08:40:44;101145.81;;;2.92;100.00
76694;BME280;69667;52.136;5.424;2024-01-06T08:43:15;101151.03;;;2.95;100.00
76694;BME280;69667;52.136;5.424;2024-01-06T08:45:43;101151.81;;;2.97;100.00
76694;BME280;69667;52.136;5.424;2024-01-06T08:48:12;101160.75;;;2.96;100.00
76694;BME280;69667;52.136;5.424;2024-01-06T08:50:44;101159.81;;;2.97;100.00
76694;BME280;69667;52.136;5.424;2024-01-06T08:53:13;101167.09;;;2.94;100.00
76694;BME280;69667;52.136;5.424;2024-01-06T08:55:43;101176.69;;;2.98;100.00
76694;BME280;69667;52.136;5.424;2024-01-06T08:58:13;101177.50;;;3.00;100.00
76694;BME280;69667;52.136;5.424;2024-01-06T09:00:41;101174.78;;;3.01;100.00
76694;BME280;69667;52.136;5.424;2024-01-06T09:03:10;101184.47;;;3.04;100.00
76694;BME280;69667;52.136;5.424;2024-01-06T09:05:40;101184.63;;;2.99;100.00
76694;BME280;69667;52.136;5.424;2024-01-06T09:08:08;101194.38;;;3.00;100.00
76694;BME280;69667;52.136;5.424;2024-01-06T09:10:36;101203.97;;;3.04;100.00
76694;BME280;69667;52.136;5.424;2024-01-06T09:13:04;101202.13;;;3.06;100.00
76694;BME280;69667;52.136;5.424;2024-01-06T09:15:33;101208.41;;;3.05;100.00
76694;BME280;69667;52.136;5.424;2024-01-06T09:18:01;101205.75;;;3.05;100.00
76694;BME280;69667;52.136;5.424;2024-01-06T09:20:30;101209.16;;;3.09;100.00
76694;BME280;69667;52.136;5.424;2024-01-06T09:22:58;101208.97;;;3.13;100.00
76694;BME280;69667;52.136;5.424;2024-01-06T09:25:26;101217.03;;;3.12;100.00
76694;BME280;69667;52.136;5.424;2024-01-06T09:27:55;101217.66;;;3.18;100.00
76694;BME280;69667;52.136;5.424;2024-01-06T09:30:23;101222.94;;;3.20;100.00
76694;BME280;69667;52.136;5.424;2024-01-06T09:32:52;101232.66;;;3.21;100.00
76694;BME280;69667;52.136;5.424;2024-01-06T09:35:20;101237.03;;;3.23;100.00
76694;BME280;69667;52.136;5.424;2024-01-06T09:37:49;101242.84;;;3.33;100.00
76694;BME280;69667;52.136;5.424;2024-01-06T09:40:22;101239.22;;;3.35;100.00
76694;BME280;69667;52.136;5.424;2024-01-06T09:42:50;101240.75;;;3.41;100.00
76694;BME280;69667;52.136;5.424;2024-01-06T09:45:19;101245.25;;;3.40;100.00
76694;BME280;69667;52.136;5.424;2024-01-06T09:47:49;101251.41;;;3.41;100.00
76694;BME280;69667;52.136;5.424;2024-01-06T09:50:19;101253.19;;;3.42;100.00
76694;BME280;69667;52.136;5.424;2024-01-06T09:52:48;101258.75;;;3.36;100.00
76694;BME280;69667;52.136;5.424;2024-01-06T09:55:24;101253.19;;;3.42;100.00
76694;BME280;69667;52.136;5.424;2024-01-06T09:57:55;101266.41;;;3.45;100.00
76694;BME280;69667;52.136;5.424;2024-01-06T10:00:24;101266.47;;;3.43;100.00
76694;BME280;69667;52.136;5.424;2024-01-06T10:02:52;101270.91;;;3.43;100.00
76694;BME280;69667;52.136;5.424;2024-01-06T10:05:22;101262.91;;;3.43;100.00
76694;BME280;69667;52.136;5.424;2024-01-06T10:07:50;101270.72;;;3.47;100.00
76694;BME280;69667;52.136;5.424;2024-01-06T10:10:18;101279.47;;;3.51;100.00
76694;BME280;69667;52.136;5.424;2024-01-06T10:12:47;101282.41;;;3.45;100.00
76694;BME280;69667;52.136;5.424;2024-01-06T10:15:15;101290.47;;;3.43;100.00
76694;BME280;69667;52.136;5.424;2024-01-06T10:17:43;101286.09;;;3.41;100.00
76694;BME280;69667;52.136;5.424;2024-01-06T10:20:12;101295.88;;;3.42;100.00
76694;BME280;69667;52.136;5.424;2024-01-06T10:22:42;101295.13;;;3.38;100.00
76694;BME280;69667;52.136;5.424;2024-01-06T10:25:11;101297.78;;;3.38;100.00
76694;BME280;69667;52.136;5.424;2024-01-06T10:27:41;101296.97;;;3.36;100.00
76694;BME280;69667;52.136;5.424;2024-01-06T10:30:10;101305.72;;;3.40;100.00
76694;BME280;69667;52.136;5.424;2024-01-06T10:32:39;101307.50;;;3.39;100.00
76694;BME280;69667;52.136;5.424;2024-01-06T10:35:07;101313.78;;;3.38;100.00
76694;BME280;69667;52.136;5.424;2024-01-06T10:37:37;101308.38;;;3.40;100.00
76694;BME280;69667;52.136;5.424;2024-01-06T10:40:13;101314.75;;;3.36;100.00
76694;BME280;69667;52.136;5.424;2024-01-06T10:42:44;101322.75;;;3.36;100.00
76694;BME280;69667;52.136;5.424;2024-01-06T10:45:14;101318.19;;;3.39;100.00
76694;BME280;69667;52.136;5.424;2024-01-06T10:47:43;101321.47;;;3.46;100.00
76694;BME280;69667;52.136;5.424;2024-01-06T10:50:12;101327.13;;;3.38;100.00
76694;BME280;69667;52.136;5.424;2024-01-06T10:52:43;101320.97;;;3.36;100.00
76694;BME280;69667;52.136;5.424;2024-01-06T10:55:12;101327.13;;;3.38;100.00
76694;BME280;69667;52.136;5.424;2024-01-06T10:57:43;101323.75;;;3.33;100.00
76694;BME280;69667;52.136;5.424;2024-01-06T11:00:13;101327.25;;;3.35;100.00
76694;BME280;69667;52.136;5.424;2024-01-06T11:02:42;101313.78;;;3.38;100.00
76694;BME280;69667;52.136;5.424;2024-01-06T11:05:11;101329.78;;;3.38;100.00
76694;BME280;69667;52.136;5.424;2024-01-06T11:07:40;101332.47;;;3.38;100.00
76694;BME280;69667;52.136;5.424;2024-01-06T11:10:15;101336.09;;;3.36;100.00
76694;BME280;69667;52.136;5.424;2024-01-06T11:12:45;101344.88;;;3.39;100.00
76694;BME280;69667;52.136;5.424;2024-01-06T11:15:45;101342.69;;;3.49;100.00
76694;BME280;69667;52.136;5.424;2024-01-06T11:18:35;101341.72;;;3.51;100.00
76694;BME280;69667;52.136;5.424;2024-01-06T11:21:20;101342.50;;;3.55;100.00
76694;BME280;69667;52.136;5.424;2024-01-06T11:26:45;101344.00;;;3.62;100.00
76694;BME280;69667;52.136;5.424;2024-01-06T11:29:18;101344.06;;;3.60;100.00
76694;BME280;69667;52.136;5.424;2024-01-06T11:32:18;101346.81;;;3.57;100.00
76694;BME280;69667;52.136;5.424;2024-01-06T11:34:48;101345.91;;;3.58;100.00
76694;BME280;69667;52.136;5.424;2024-01-06T11:38:09;101346.72;;;3.60;100.00
76694;BME280;69667;52.136;5.424;2024-01-06T11:45:25;101343.25;;;3.58;100.00
76694;BME280;69667;52.136;5.424;2024-01-06T11:47:58;101342.25;;;3.61;100.00
76694;BME280;69667;52.136;5.424;2024-01-06T11:50:28;101344.06;;;3.60;100.00
76694;BME280;69667;52.136;5.424;2024-01-06T11:52:56;101348.31;;;3.64;100.00
76694;BME280;69667;52.136;5.424;2024-01-06T11:55:25;101351.06;;;3.63;100.00
76694;BME280;69667;52.136;5.424;2024-01-06T11:57:55;101344.75;;;3.65;100.00
76694;BME280;69667;52.136;5.424;2024-01-06T12:00:25;101350.31;;;3.59;100.00
76694;BME280;69667;52.136;5.424;2024-01-06T12:03:00;101359.53;;;3.51;100.00
76694;BME280;69667;52.136;5.424;2024-01-06T12:05:29;101351.59;;;3.49;100.00
76694;BME280;69667;52.136;5.424;2024-01-06T12:08:01;101346.38;;;3.46;100.00
76694;BME280;69667;52.136;5.424;2024-01-06T12:10:35;101343.81;;;3.43;100.00
76694;BME280;69667;52.136;5.424;2024-01-06T12:13:05;101353.63;;;3.43;100.00
76694;BME280;69667;52.136;5.424;2024-01-06T12:15:39;101355.41;;;3.42;100.00
76694;BME280;69667;52.136;5.424;2024-01-06T12:18:08;101348.28;;;3.43;100.00
76694;BME280;69667;52.136;5.424;2024-01-06T12:20:37;101355.53;;;3.39;100.00
76694;BME280;69667;52.136;5.424;2024-01-06T12:23:06;101360.03;;;3.37;100.00
76694;BME280;69667;52.136;5.424;2024-01-06T12:25:34;101359.25;;;3.35;100.00
76694;BME280;69667;52.136;5.424;2024-01-06T12:28:07;101365.69;;;3.30;100.00
76694;BME280;69667;52.136;5.424;2024-01-06T12:30:38;101372.81;;;3.29;100.00
76694;BME280;69667;52.136;5.424;2024-01-06T12:33:07;101370.19;;;3.28;100.00
76694;BME280;69667;52.136;5.424;2024-01-06T12:35:36;101372.88;;;3.28;100.00
76694;BME280;69667;52.136;5.424;2024-01-06T12:38:04;101369.31;;;3.27;100.00
76694;BME280;69667;52.136;5.424;2024-01-06T12:40:36;101373.81;;;3.27;100.00
76694;BME280;69667;52.136;5.424;2024-01-06T12:43:05;101371.13;;;3.27;100.00
76694;BME280;69667;52.136;5.424;2024-01-06T12:45:34;101373.75;;;3.28;100.00
76694;BME280;69667;52.136;5.424;2024-01-06T12:48:02;101379.22;;;3.24;100.00
76694;BME280;69667;52.136;5.424;2024-01-06T12:50:31;101370.38;;;3.23;100.00
76694;BME280;69667;52.136;5.424;2024-01-06T12:52:59;101371.09;;;3.28;100.00
76694;BME280;69667;52.136;5.424;2024-01-06T12:55:27;101378.25;;;3.26;100.00
76694;BME280;69667;52.136;5.424;2024-01-06T12:57:56;101372.81;;;3.29;100.00
76694;BME280;69667;52.136;5.424;2024-01-06T13:00:24;101375.47;;;3.29;100.00
76694;BME280;69667;52.136;5.424;2024-01-06T13:02:53;101381.75;;;3.28;100.00
76694;BME280;69667;52.136;5.424;2024-01-06T13:05:21;101385.31;;;3.27;100.00
76694;BME280;69667;52.136;5.424;2024-01-06T13:07:50;101379.28;;;3.22;100.00